Flinterbirka — PHFQ — position and weather

sailwx.info

Track history (hours):
 
Tides and Currents Weather Stations Pressure Air Temp Water Temp Dewpoint Dewpoint Depression Visibility Wind Speed Wind Dir Waves Ship Positions

Flinterbirka

Last reported at 2014-Dec-21 22:33 UTC. Time now 2014-Dec-21 23:11 UTC.
Position N 55°16' E 014°30'.

Length 83 m; draft 5.3 m.

Type: Cargo ship. MMSI: 246525000.

Date/timePositionNaut miles runAvg speedWind from/ knotsBaromVisibWave heightAir tempDewpointWater temp
2014-Dec-21 22:33N 55°16' E 014°30'1110.5
2014-Dec-21 21:33N 55°08' E 014°18'1110.6
2014-Dec-21 20:33N 55°01' E 014°04'2210.9
2014-Dec-21 18:30N 54°52' E 013°29'1410.7
2014-Dec-21 17:14N 54°46' E 013°07'811.2
2014-Dec-21 16:30N 54°43' E 012°54'1111.4
2014-Dec-21 15:33N 54°38' E 012°38'1111.3
2014-Dec-21 14:33N 54°33' E 012°21'1110.9
2014-Dec-21 13:33N 54°25' E 012°08'1111.3
2014-Dec-21 12:34N 54°25' E 011°49'1111.4
2014-Dec-21 11:33N 54°29' E 011°31'1212.3
2014-Dec-21 10:33N 54°35' E 011°11'1511.9
2014-Dec-21 09:17N 54°33' E 010°45'811.0
2014-Dec-21 08:34N 54°31' E 010°32'1010.3
2014-Dec-21 07:34N 54°27' E 010°15'7 6.6
2014-Dec-21 06:34N 54°22' E 010°08'4 4.0
2014-Dec-21 05:33N 54°22' E 010°02'7 7.0
2014-Dec-21 04:34N 54°22' E 009°50'9 4.5
2014-Dec-21 02:33N 54°16' E 009°38'9 7.1
2014-Dec-21 01:16N 54°10' E 009°26'4 3.6
2014-Dec-21 00:07N 54°08' E 009°20'5 8.6
2014-Dec-20 23:33N 54°03' E 009°18'9 8.7
2014-Dec-20 22:34N 53°55' E 009°12'4 3.7
2014-Dec-20 21:33N 53°53' E 009°07'1 0.7
2014-Dec-20 20:34N 53°53' E 009°05'9 8.7
2014-Dec-20 19:34N 53°50' E 008°51'9 8.8
2014-Dec-20 18:34N 53°56' E 008°40'8 8.2
2014-Dec-20 17:34N 53°59' E 008°27'10 9.9
2014-Dec-20 16:33N 53°59' E 008°10'20 8.8
2014-Dec-20 14:19N 53°55' E 007°37'52 9.1
2014-Dec-20 08:32N 53°42' E 006°11'1010.3
2014-Dec-20 07:33N 53°39' E 005°55'1110.6
2014-Dec-20 06:34N 53°35' E 005°38'1111.0
2014-Dec-20 05:34N 53°32' E 005°20'1111.0
2014-Dec-20 04:34N 53°29' E 005°03'1110.9
2014-Dec-20 03:33N 53°24' E 004°46'142 9.2
2014-Dec-19 12:07N 51°33' E 002°20'811.9
2014-Dec-19 11:29N 51°27' E 002°13'1111.5
2014-Dec-19 10:33N 51°17' E 002°06'1211.7
2014-Dec-19 09:34N 51°09' E 001°52'1212.1
2014-Dec-19 08:34N 51°01' E 001°38'406 8.8
2014-Dec-17 10:20N 51°08' W 009°07'810.1
2014-Dec-17 09:33N 51°12' W 009°19'1010.3
2014-Dec-17 08:33N 51°15' W 009°34'1010.0
2014-Dec-17 07:33N 51°20' W 009°48'1010.0
2014-Dec-17 06:33N 51°24' W 010°03'1510.0
2014-Dec-17 05:04N 51°32' W 010°23'39 8.4
2014-Dec-17 00:28N 52°09' W 010°44'7 7.1
2014-Dec-16 23:33N 52°14' W 010°37'14 6.7
2014-Dec-16 21:27N 52°24' W 010°21'6 6.6
2014-Dec-16 20:28N 52°29' W 010°15'7 7.0
2014-Dec-16 19:28N 52°35' W 010°07'17 0.4
2014-Dec-14 22:32N 52°24' W 010°29'1110.3
2014-Dec-14 21:30N 52°16' W 010°41'10 9.7
2014-Dec-14 20:31N 52°09' W 010°52'19 5.8
2014-Dec-14 17:18N 51°52' W 011°02'  
Track history (hours):
 
Tides and Currents Weather Stations Pressure Air Temp Water Temp Dewpoint Dewpoint Depression Visibility Wind Speed Wind Dir Waves Ship Positions

Flinterbirka

Last reported at 2014-Dec-21 22:33 UTC. Time now 2014-Dec-21 23:11 UTC.
Position N 55°16' E 014°30'.

Length 83 m; draft 5.3 m.

Type: Cargo ship. MMSI: 246525000.

Date/timePositionNaut miles runAvg speedWind from/ knotsBaromVisibWave heightAir tempDewpointWater temp
2014-Dec-21 22:33N 55°16' E 014°30'1110.5
2014-Dec-21 21:33N 55°08' E 014°18'1110.6
2014-Dec-21 20:33N 55°01' E 014°04'2210.9
2014-Dec-21 18:30N 54°52' E 013°29'1410.7
2014-Dec-21 17:14N 54°46' E 013°07'811.2
2014-Dec-21 16:30N 54°43' E 012°54'1111.4
2014-Dec-21 15:33N 54°38' E 012°38'1111.3
2014-Dec-21 14:33N 54°33' E 012°21'1110.9
2014-Dec-21 13:33N 54°25' E 012°08'1111.3
2014-Dec-21 12:34N 54°25' E 011°49'1111.4
2014-Dec-21 11:33N 54°29' E 011°31'1212.3
2014-Dec-21 10:33N 54°35' E 011°11'1511.9
2014-Dec-21 09:17N 54°33' E 010°45'811.0
2014-Dec-21 08:34N 54°31' E 010°32'1010.3
2014-Dec-21 07:34N 54°27' E 010°15'7 6.6
2014-Dec-21 06:34N 54°22' E 010°08'4 4.0
2014-Dec-21 05:33N 54°22' E 010°02'7 7.0
2014-Dec-21 04:34N 54°22' E 009°50'9 4.5
2014-Dec-21 02:33N 54°16' E 009°38'9 7.1
2014-Dec-21 01:16N 54°10' E 009°26'4 3.6
2014-Dec-21 00:07N 54°08' E 009°20'5 8.6
2014-Dec-20 23:33N 54°03' E 009°18'9 8.7
2014-Dec-20 22:34N 53°55' E 009°12'4 3.7
2014-Dec-20 21:33N 53°53' E 009°07'1 0.7
2014-Dec-20 20:34N 53°53' E 009°05'9 8.7
2014-Dec-20 19:34N 53°50' E 008°51'9 8.8
2014-Dec-20 18:34N 53°56' E 008°40'8 8.2
2014-Dec-20 17:34N 53°59' E 008°27'10 9.9
2014-Dec-20 16:33N 53°59' E 008°10'20 8.8
2014-Dec-20 14:19N 53°55' E 007°37'52 9.1
2014-Dec-20 08:32N 53°42' E 006°11'1010.3
2014-Dec-20 07:33N 53°39' E 005°55'1110.6
2014-Dec-20 06:34N 53°35' E 005°38'1111.0
2014-Dec-20 05:34N 53°32' E 005°20'1111.0
2014-Dec-20 04:34N 53°29' E 005°03'1110.9
2014-Dec-20 03:33N 53°24' E 004°46'142 9.2
2014-Dec-19 12:07N 51°33' E 002°20'811.9
2014-Dec-19 11:29N 51°27' E 002°13'1111.5
2014-Dec-19 10:33N 51°17' E 002°06'1211.7
2014-Dec-19 09:34N 51°09' E 001°52'1212.1
2014-Dec-19 08:34N 51°01' E 001°38'406 8.8
2014-Dec-17 10:20N 51°08' W 009°07'810.1
2014-Dec-17 09:33N 51°12' W 009°19'1010.3
2014-Dec-17 08:33N 51°15' W 009°34'1010.0
2014-Dec-17 07:33N 51°20' W 009°48'1010.0
2014-Dec-17 06:33N 51°24' W 010°03'1510.0
2014-Dec-17 05:04N 51°32' W 010°23'39 8.4
2014-Dec-17 00:28N 52°09' W 010°44'7 7.1
2014-Dec-16 23:33N 52°14' W 010°37'14 6.7
2014-Dec-16 21:27N 52°24' W 010°21'6 6.6
2014-Dec-16 20:28N 52°29' W 010°15'7 7.0
2014-Dec-16 19:28N 52°35' W 010°07'17 0.4
2014-Dec-14 22:32N 52°24' W 010°29'1110.3
2014-Dec-14 21:30N 52°16' W 010°41'10 9.7
2014-Dec-14 20:31N 52°09' W 010°52'19 5.8
2014-Dec-14 17:18N 51°52' W 011°02'  

Dump ship's entire track history